Decoded Metar for KLZU (LAWRENCEVILLE in GA, USA) (IATA:LZU) | Meteo·Mobile Aviation Weather
aviador You're here:

KLZU Decoded Metar

LAWRENCEVILLE in GA, USA
Report Time2018-09-18 20:56:00
UTC Time2018-09-18 21:37:09
Flight Rules vfr VFR
Wind280° at 07 kt
W.Decomp.*RWY 25: 5.7 kt HW 4.0 kt RCW
W.Rank280° ranks 1
Current wind is below 280° avg. (7.9)
Visibility9999 m
Phenomena:N/A
Clouds:Scattered 060 Hf
Expected CloudBase > 5,200 ft AGL from Temp-Dew spread
CeilingNone
Temp32°C (ISA +19)
Dew Point19°C (46% RH)
Heat Index33.5°C
QNH1014 hPa
Density Alt3,497 ft
Elevation1,060 ft
Report Wrong Elevation
Raw Report
METAR KLZU 182056Z 28007KT 240V310 10SM SCT060 32/19 A2993 RMK AO2
SLP132 T03220194 56017=

Extra information for KLZU:More info

Metar Taf Metar & Taf Last 4 Metars F.Rules Stats Wind Profile Meteogram Temp Stats Airport Information Weather charts Add Link Nearby VenuesMetar ALERT Operation Metar Decoded Social comments

AIRNAV info for KLZU